sensor_id;sensor_type;location;lat;lon;timestamp;P1;durP1;ratioP1;P2;durP2;ratioP2
35434;SDS011;21556;55.782;37.528;2023-06-22T00:00:49;12.82;;;6.80;;
35434;SDS011;21556;55.782;37.528;2023-06-22T00:03:17;9.55;;;5.78;;
35434;SDS011;21556;55.782;37.528;2023-06-22T00:05:44;14.25;;;6.78;;
35434;SDS011;21556;55.782;37.528;2023-06-22T00:08:10;10.07;;;6.25;;
35434;SDS011;21556;55.782;37.528;2023-06-22T00:10:42;13.98;;;5.97;;
35434;SDS011;21556;55.782;37.528;2023-06-22T00:13:14;12.82;;;6.15;;
35434;SDS011;21556;55.782;37.528;2023-06-22T00:15:41;11.10;;;6.25;;
35434;SDS011;21556;55.782;37.528;2023-06-22T00:18:07;13.10;;;6.30;;
35434;SDS011;21556;55.782;37.528;2023-06-22T00:20:35;15.02;;;6.00;;
35434;SDS011;21556;55.782;37.528;2023-06-22T00:23:03;14.63;;;7.17;;
35434;SDS011;21556;55.782;37.528;2023-06-22T00:25:36;11.93;;;6.30;;
35434;SDS011;21556;55.782;37.528;2023-06-22T00:28:03;15.43;;;6.65;;
35434;SDS011;21556;55.782;37.528;2023-06-22T00:30:30;12.48;;;6.07;;
35434;SDS011;21556;55.782;37.528;2023-06-22T00:32:57;14.13;;;6.43;;
35434;SDS011;21556;55.782;37.528;2023-06-22T00:35:24;14.10;;;6.97;;
35434;SDS011;21556;55.782;37.528;2023-06-22T00:37:58;13.15;;;6.07;;
35434;SDS011;21556;55.782;37.528;2023-06-22T00:40:31;17.20;;;6.00;;
35434;SDS011;21556;55.782;37.528;2023-06-22T00:42:59;14.40;;;5.45;;
35434;SDS011;21556;55.782;37.528;2023-06-22T00:45:26;18.83;;;6.30;;
35434;SDS011;21556;55.782;37.528;2023-06-22T00:47:55;17.08;;;6.68;;
35434;SDS011;21556;55.782;37.528;2023-06-22T00:50:23;12.93;;;6.65;;
35434;SDS011;21556;55.782;37.528;2023-06-22T00:55:22;17.60;;;6.03;;
35434;SDS011;21556;55.782;37.528;2023-06-22T00:57:49;13.82;;;5.32;;
35434;SDS011;21556;55.782;37.528;2023-06-22T01:00:15;15.45;;;6.03;;
35434;SDS011;21556;55.782;37.528;2023-06-22T01:02:46;19.38;;;7.43;;
35434;SDS011;21556;55.782;37.528;2023-06-22T01:05:13;20.25;;;7.10;;
35434;SDS011;21556;55.782;37.528;2023-06-22T01:13:06;17.67;;;5.60;;
35434;SDS011;21556;55.782;37.528;2023-06-22T01:15:44;21.17;;;6.93;;
35434;SDS011;21556;55.782;37.528;2023-06-22T01:18:11;22.75;;;7.45;;
35434;SDS011;21556;55.782;37.528;2023-06-22T01:20:39;25.55;;;7.13;;
35434;SDS011;21556;55.782;37.528;2023-06-22T01:26:28;23.92;;;7.00;;
35434;SDS011;21556;55.782;37.528;2023-06-22T01:29:04;20.70;;;7.13;;
35434;SDS011;21556;55.782;37.528;2023-06-22T01:31:31;20.80;;;5.97;;
35434;SDS011;21556;55.782;37.528;2023-06-22T01:33:59;16.13;;;5.53;;
35434;SDS011;21556;55.782;37.528;2023-06-22T01:36:29;9.93;;;5.38;;
35434;SDS011;21556;55.782;37.528;2023-06-22T01:38:56;14.02;;;5.60;;
35434;SDS011;21556;55.782;37.528;2023-06-22T01:41:24;13.93;;;5.10;;
35434;SDS011;21556;55.782;37.528;2023-06-22T01:43:52;10.93;;;5.00;;
35434;SDS011;21556;55.782;37.528;2023-06-22T01:46:19;9.20;;;4.90;;
35434;SDS011;21556;55.782;37.528;2023-06-22T01:48:46;10.10;;;4.72;;
35434;SDS011;21556;55.782;37.528;2023-06-22T01:51:13;7.93;;;4.80;;
35434;SDS011;21556;55.782;37.528;2023-06-22T01:53:39;7.13;;;4.10;;
35434;SDS011;21556;55.782;37.528;2023-06-22T01:56:06;7.03;;;4.40;;
35434;SDS011;21556;55.782;37.528;2023-06-22T01:58:37;13.65;;;5.45;;
35434;SDS011;21556;55.782;37.528;2023-06-22T02:01:11;11.02;;;5.18;;
35434;SDS011;21556;55.782;37.528;2023-06-22T02:03:47;12.23;;;4.75;;
35434;SDS011;21556;55.782;37.528;2023-06-22T02:06:21;9.68;;;4.65;;
35434;SDS011;21556;55.782;37.528;2023-06-22T02:08:57;9.50;;;5.22;;
35434;SDS011;21556;55.782;37.528;2023-06-22T02:11:26;12.25;;;5.47;;
35434;SDS011;21556;55.782;37.528;2023-06-22T02:13:56;11.95;;;4.07;;
35434;SDS011;21556;55.782;37.528;2023-06-22T02:16:23;5.07;;;4.28;;
35434;SDS011;21556;55.782;37.528;2023-06-22T02:18:51;6.07;;;3.85;;
35434;SDS011;21556;55.782;37.528;2023-06-22T02:21:19;8.82;;;4.43;;
35434;SDS011;21556;55.782;37.528;2023-06-22T02:23:46;7.57;;;4.20;;
35434;SDS011;21556;55.782;37.528;2023-06-22T02:26:12;8.55;;;4.10;;
35434;SDS011;21556;55.782;37.528;2023-06-22T02:28:39;10.10;;;4.53;;
35434;SDS011;21556;55.782;37.528;2023-06-22T02:31:05;8.65;;;4.30;;
35434;SDS011;21556;55.782;37.528;2023-06-22T02:33:31;6.70;;;4.75;;
35434;SDS011;21556;55.782;37.528;2023-06-22T02:35:57;9.30;;;6.05;;
35434;SDS011;21556;55.782;37.528;2023-06-22T02:38:23;12.32;;;4.80;;
35434;SDS011;21556;55.782;37.528;2023-06-22T02:40:51;14.95;;;5.00;;
35434;SDS011;21556;55.782;37.528;2023-06-22T02:43:18;10.65;;;4.65;;
35434;SDS011;21556;55.782;37.528;2023-06-22T02:45:44;16.02;;;6.30;;
35434;SDS011;21556;55.782;37.528;2023-06-22T02:48:11;12.27;;;6.82;;
35434;SDS011;21556;55.782;37.528;2023-06-22T02:50:37;13.30;;;6.20;;
35434;SDS011;21556;55.782;37.528;2023-06-22T02:53:05;10.27;;;5.50;;
35434;SDS011;21556;55.782;37.528;2023-06-22T02:55:35;10.27;;;4.65;;
35434;SDS011;21556;55.782;37.528;2023-06-22T02:58:01;7.50;;;5.05;;
35434;SDS011;21556;55.782;37.528;2023-06-22T03:00:33;7.53;;;4.68;;
35434;SDS011;21556;55.782;37.528;2023-06-22T03:03:00;13.27;;;6.07;;
35434;SDS011;21556;55.782;37.528;2023-06-22T03:05:26;11.55;;;5.45;;
35434;SDS011;21556;55.782;37.528;2023-06-22T03:07:53;10.40;;;5.63;;
35434;SDS011;21556;55.782;37.528;2023-06-22T03:10:19;10.82;;;5.43;;
35434;SDS011;21556;55.782;37.528;2023-06-22T03:12:45;9.23;;;5.90;;
35434;SDS011;21556;55.782;37.528;2023-06-22T03:15:12;11.48;;;6.15;;
35434;SDS011;21556;55.782;37.528;2023-06-22T03:17:39;9.52;;;5.50;;
35434;SDS011;21556;55.782;37.528;2023-06-22T03:20:08;11.43;;;5.55;;
35434;SDS011;21556;55.782;37.528;2023-06-22T03:22:41;11.43;;;5.97;;
35434;SDS011;21556;55.782;37.528;2023-06-22T03:25:08;13.43;;;6.18;;
35434;SDS011;21556;55.782;37.528;2023-06-22T03:27:45;10.60;;;5.80;;
35434;SDS011;21556;55.782;37.528;2023-06-22T03:30:12;8.57;;;6.00;;
35434;SDS011;21556;55.782;37.528;2023-06-22T03:32:38;10.90;;;6.20;;
35434;SDS011;21556;55.782;37.528;2023-06-22T03:35:06;12.27;;;5.80;;
35434;SDS011;21556;55.782;37.528;2023-06-22T03:37:35;11.07;;;5.95;;
35434;SDS011;21556;55.782;37.528;2023-06-22T03:40:02;8.93;;;5.57;;
35434;SDS011;21556;55.782;37.528;2023-06-22T03:42:35;8.07;;;5.07;;
35434;SDS011;21556;55.782;37.528;2023-06-22T03:45:03;8.65;;;6.30;;
35434;SDS011;21556;55.782;37.528;2023-06-22T03:47:34;10.73;;;5.75;;
35434;SDS011;21556;55.782;37.528;2023-06-22T03:50:01;10.63;;;5.70;;
35434;SDS011;21556;55.782;37.528;2023-06-22T03:52:33;16.42;;;6.07;;
35434;SDS011;21556;55.782;37.528;2023-06-22T03:54:59;10.50;;;5.68;;
35434;SDS011;21556;55.782;37.528;2023-06-22T03:57:25;11.52;;;5.72;;
35434;SDS011;21556;55.782;37.528;2023-06-22T03:59:51;11.98;;;6.03;;
35434;SDS011;21556;55.782;37.528;2023-06-22T04:02:17;8.98;;;5.78;;
35434;SDS011;21556;55.782;37.528;2023-06-22T04:04:43;17.73;;;9.95;;
35434;SDS011;21556;55.782;37.528;2023-06-22T04:07:09;13.50;;;5.70;;
35434;SDS011;21556;55.782;37.528;2023-06-22T04:09:35;9.05;;;4.95;;
35434;SDS011;21556;55.782;37.528;2023-06-22T04:12:01;9.45;;;4.85;;
35434;SDS011;21556;55.782;37.528;2023-06-22T04:14:27;6.50;;;3.95;;
35434;SDS011;21556;55.782;37.528;2023-06-22T04:16:53;14.52;;;5.80;;
35434;SDS011;21556;55.782;37.528;2023-06-22T04:19:19;5.40;;;4.20;;
35434;SDS011;21556;55.782;37.528;2023-06-22T04:21:45;7.28;;;4.00;;
35434;SDS011;21556;55.782;37.528;2023-06-22T04:24:14;7.97;;;4.60;;
35434;SDS011;21556;55.782;37.528;2023-06-22T04:26:40;6.80;;;4.10;;
35434;SDS011;21556;55.782;37.528;2023-06-22T04:29:07;7.60;;;4.10;;
35434;SDS011;21556;55.782;37.528;2023-06-22T04:31:37;9.52;;;4.13;;
35434;SDS011;21556;55.782;37.528;2023-06-22T04:34:04;8.30;;;4.93;;
35434;SDS011;21556;55.782;37.528;2023-06-22T04:36:39;8.25;;;4.55;;
35434;SDS011;21556;55.782;37.528;2023-06-22T04:39:10;7.13;;;4.20;;
35434;SDS011;21556;55.782;37.528;2023-06-22T04:41:37;4.90;;;3.42;;
35434;SDS011;21556;55.782;37.528;2023-06-22T04:44:18;6.78;;;3.40;;
35434;SDS011;21556;55.782;37.528;2023-06-22T04:46:52;5.20;;;3.58;;
35434;SDS011;21556;55.782;37.528;2023-06-22T04:49:26;10.25;;;3.65;;
35434;SDS011;21556;55.782;37.528;2023-06-22T04:51:58;3.85;;;3.40;;
35434;SDS011;21556;55.782;37.528;2023-06-22T04:54:25;5.43;;;3.72;;
35434;SDS011;21556;55.782;37.528;2023-06-22T04:56:51;7.65;;;4.38;;
35434;SDS011;21556;55.782;37.528;2023-06-22T04:59:23;7.20;;;3.67;;
35434;SDS011;21556;55.782;37.528;2023-06-22T05:01:54;5.80;;;3.20;;
35434;SDS011;21556;55.782;37.528;2023-06-22T05:04:21;8.75;;;3.78;;
35434;SDS011;21556;55.782;37.528;2023-06-22T05:06:48;6.80;;;3.42;;
35434;SDS011;21556;55.782;37.528;2023-06-22T05:09:18;6.80;;;3.70;;
35434;SDS011;21556;55.782;37.528;2023-06-22T05:11:45;6.45;;;3.72;;
35434;SDS011;21556;55.782;37.528;2023-06-22T05:14:11;5.28;;;3.75;;
35434;SDS011;21556;55.782;37.528;2023-06-22T05:16:37;6.85;;;3.78;;
35434;SDS011;21556;55.782;37.528;2023-06-22T05:19:04;14.57;;;7.68;;
35434;SDS011;21556;55.782;37.528;2023-06-22T05:21:30;6.78;;;3.67;;
35434;SDS011;21556;55.782;37.528;2023-06-22T05:23:56;5.43;;;4.05;;
35434;SDS011;21556;55.782;37.528;2023-06-22T05:26:29;4.97;;;3.78;;
35434;SDS011;21556;55.782;37.528;2023-06-22T05:28:56;7.53;;;4.30;;
35434;SDS011;21556;55.782;37.528;2023-06-22T05:31:23;6.28;;;4.63;;
35434;SDS011;21556;55.782;37.528;2023-06-22T05:33:50;6.82;;;4.32;;
35434;SDS011;21556;55.782;37.528;2023-06-22T05:38:45;5.35;;;3.72;;
35434;SDS011;21556;55.782;37.528;2023-06-22T05:41:11;9.93;;;3.80;;
35434;SDS011;21556;55.782;37.528;2023-06-22T05:43:37;6.50;;;4.57;;
35434;SDS011;21556;55.782;37.528;2023-06-22T05:46:03;6.47;;;3.80;;
35434;SDS011;21556;55.782;37.528;2023-06-22T05:48:30;6.30;;;3.80;;
35434;SDS011;21556;55.782;37.528;2023-06-22T05:50:56;4.63;;;4.10;;
35434;SDS011;21556;55.782;37.528;2023-06-22T05:53:22;7.97;;;4.43;;
35434;SDS011;21556;55.782;37.528;2023-06-22T05:55:49;6.55;;;4.18;;
35434;SDS011;21556;55.782;37.528;2023-06-22T05:58:15;8.70;;;4.20;;
35434;SDS011;21556;55.782;37.528;2023-06-22T06:04:06;6.13;;;3.97;;
35434;SDS011;21556;55.782;37.528;2023-06-22T06:06:35;7.65;;;4.55;;
35434;SDS011;21556;55.782;37.528;2023-06-22T06:09:05;6.75;;;3.83;;
35434;SDS011;21556;55.782;37.528;2023-06-22T06:11:33;8.60;;;4.43;;
35434;SDS011;21556;55.782;37.528;2023-06-22T06:13:59;12.45;;;3.75;;
35434;SDS011;21556;55.782;37.528;2023-06-22T06:16:24;5.80;;;4.00;;
35434;SDS011;21556;55.782;37.528;2023-06-22T06:18:50;4.85;;;3.60;;
35434;SDS011;21556;55.782;37.528;2023-06-22T06:23:47;7.70;;;4.20;;
35434;SDS011;21556;55.782;37.528;2023-06-22T06:26:13;7.40;;;4.05;;
35434;SDS011;21556;55.782;37.528;2023-06-22T06:28:42;8.70;;;4.70;;
35434;SDS011;21556;55.782;37.528;2023-06-22T06:31:09;4.45;;;3.90;;
35434;SDS011;21556;55.782;37.528;2023-06-22T06:33:36;6.60;;;4.03;;
35434;SDS011;21556;55.782;37.528;2023-06-22T06:38:32;7.90;;;4.20;;
35434;SDS011;21556;55.782;37.528;2023-06-22T06:41:01;6.25;;;3.85;;
35434;SDS011;21556;55.782;37.528;2023-06-22T06:43:27;7.28;;;4.03;;
35434;SDS011;21556;55.782;37.528;2023-06-22T06:45:53;4.70;;;3.78;;
35434;SDS011;21556;55.782;37.528;2023-06-22T06:48:20;3.92;;;3.40;;
35434;SDS011;21556;55.782;37.528;2023-06-22T06:50:46;6.82;;;3.63;;
35434;SDS011;21556;55.782;37.528;2023-06-22T06:53:13;6.60;;;3.92;;
35434;SDS011;21556;55.782;37.528;2023-06-22T06:55:39;6.85;;;5.55;;
35434;SDS011;21556;55.782;37.528;2023-06-22T07:00:42;6.45;;;3.33;;
35434;SDS011;21556;55.782;37.528;2023-06-22T07:03:10;3.90;;;3.45;;
35434;SDS011;21556;55.782;37.528;2023-06-22T07:05:39;6.57;;;3.78;;
35434;SDS011;21556;55.782;37.528;2023-06-22T07:08:05;7.07;;;3.63;;
35434;SDS011;21556;55.782;37.528;2023-06-22T07:10:35;5.63;;;3.85;;
35434;SDS011;21556;55.782;37.528;2023-06-22T07:13:01;6.38;;;3.97;;
35434;SDS011;21556;55.782;37.528;2023-06-22T07:15:27;5.03;;;3.10;;
35434;SDS011;21556;55.782;37.528;2023-06-22T07:17:53;6.15;;;3.53;;
35434;SDS011;21556;55.782;37.528;2023-06-22T07:20:19;5.35;;;4.68;;
35434;SDS011;21556;55.782;37.528;2023-06-22T07:22:45;4.70;;;3.40;;
35434;SDS011;21556;55.782;37.528;2023-06-22T07:25:11;5.63;;;3.67;;
35434;SDS011;21556;55.782;37.528;2023-06-22T07:27:46;4.68;;;3.30;;
35434;SDS011;21556;55.782;37.528;2023-06-22T07:30:22;4.35;;;3.67;;
35434;SDS011;21556;55.782;37.528;2023-06-22T07:32:48;8.30;;;5.22;;
35434;SDS011;21556;55.782;37.528;2023-06-22T07:35:14;4.72;;;3.15;;
35434;SDS011;21556;55.782;37.528;2023-06-22T07:37:42;9.18;;;4.70;;
35434;SDS011;21556;55.782;37.528;2023-06-22T07:40:08;4.88;;;4.30;;
35434;SDS011;21556;55.782;37.528;2023-06-22T07:42:35;7.57;;;3.85;;
35434;SDS011;21556;55.782;37.528;2023-06-22T07:45:01;6.63;;;3.58;;
35434;SDS011;21556;55.782;37.528;2023-06-22T07:47:31;10.00;;;4.15;;
35434;SDS011;21556;55.782;37.528;2023-06-22T07:50:01;5.35;;;3.72;;
35434;SDS011;21556;55.782;37.528;2023-06-22T07:52:31;6.93;;;3.95;;
35434;SDS011;21556;55.782;37.528;2023-06-22T07:54:58;5.53;;;3.63;;
35434;SDS011;21556;55.782;37.528;2023-06-22T07:57:24;7.05;;;4.03;;
35434;SDS011;21556;55.782;37.528;2023-06-22T07:59:58;5.85;;;3.47;;
35434;SDS011;21556;55.782;37.528;2023-06-22T08:02:25;5.60;;;3.83;;
35434;SDS011;21556;55.782;37.528;2023-06-22T08:04:51;5.65;;;3.70;;
35434;SDS011;21556;55.782;37.528;2023-06-22T08:07:18;4.78;;;3.38;;
35434;SDS011;21556;55.782;37.528;2023-06-22T08:09:48;5.68;;;3.55;;
35434;SDS011;21556;55.782;37.528;2023-06-22T08:12:15;6.32;;;3.50;;
35434;SDS011;21556;55.782;37.528;2023-06-22T08:14:42;5.47;;;3.67;;
35434;SDS011;21556;55.782;37.528;2023-06-22T08:17:10;4.30;;;3.90;;
35434;SDS011;21556;55.782;37.528;2023-06-22T08:19:37;6.82;;;3.95;;
35434;SDS011;21556;55.782;37.528;2023-06-22T08:22:03;7.25;;;4.03;;
35434;SDS011;21556;55.782;37.528;2023-06-22T08:24:29;4.13;;;3.42;;
35434;SDS011;21556;55.782;37.528;2023-06-22T08:26:56;10.50;;;3.87;;
35434;SDS011;21556;55.782;37.528;2023-06-22T08:29:22;6.07;;;3.60;;
35434;SDS011;21556;55.782;37.528;2023-06-22T08:31:48;6.75;;;4.07;;
35434;SDS011;21556;55.782;37.528;2023-06-22T08:34:14;6.10;;;3.55;;
35434;SDS011;21556;55.782;37.528;2023-06-22T08:36:40;5.18;;;3.67;;
35434;SDS011;21556;55.782;37.528;2023-06-22T08:39:10;5.40;;;3.83;;
35434;SDS011;21556;55.782;37.528;2023-06-22T08:41:36;6.55;;;3.60;;
35434;SDS011;21556;55.782;37.528;2023-06-22T08:44:03;6.32;;;4.78;;
35434;SDS011;21556;55.782;37.528;2023-06-22T08:46:30;6.18;;;4.40;;
35434;SDS011;21556;55.782;37.528;2023-06-22T08:48:57;6.45;;;4.30;;
35434;SDS011;21556;55.782;37.528;2023-06-22T08:51:25;5.28;;;4.10;;
35434;SDS011;21556;55.782;37.528;2023-06-22T08:53:51;5.03;;;4.13;;
35434;SDS011;21556;55.782;37.528;2023-06-22T08:56:17;8.32;;;4.65;;
35434;SDS011;21556;55.782;37.528;2023-06-22T08:58:43;5.80;;;3.92;;
35434;SDS011;21556;55.782;37.528;2023-06-22T09:01:09;7.07;;;4.10;;
35434;SDS011;21556;55.782;37.528;2023-06-22T09:03:35;4.65;;;4.18;;
35434;SDS011;21556;55.782;37.528;2023-06-22T09:08:29;8.55;;;3.97;;
35434;SDS011;21556;55.782;37.528;2023-06-22T09:10:55;5.35;;;4.32;;
35434;SDS011;21556;55.782;37.528;2023-06-22T09:13:21;4.40;;;3.53;;
35434;SDS011;21556;55.782;37.528;2023-06-22T09:15:47;6.05;;;3.85;;
35434;SDS011;21556;55.782;37.528;2023-06-22T09:18:13;13.13;;;4.78;;
35434;SDS011;21556;55.782;37.528;2023-06-22T09:20:40;5.88;;;3.92;;
35434;SDS011;21556;55.782;37.528;2023-06-22T09:23:08;5.80;;;3.70;;
35434;SDS011;21556;55.782;37.528;2023-06-22T09:25:34;6.20;;;3.80;;
35434;SDS011;21556;55.782;37.528;2023-06-22T09:28:00;10.63;;;3.63;;
35434;SDS011;21556;55.782;37.528;2023-06-22T09:30:26;5.75;;;3.90;;
35434;SDS011;21556;55.782;37.528;2023-06-22T09:32:52;5.68;;;3.85;;
35434;SDS011;21556;55.782;37.528;2023-06-22T09:35:18;7.05;;;4.13;;
35434;SDS011;21556;55.782;37.528;2023-06-22T09:37:44;5.72;;;4.00;;
35434;SDS011;21556;55.782;37.528;2023-06-22T09:40:10;6.05;;;4.10;;
35434;SDS011;21556;55.782;37.528;2023-06-22T09:45:04;4.30;;;3.90;;
35434;SDS011;21556;55.782;37.528;2023-06-22T09:47:33;6.78;;;4.03;;
35434;SDS011;21556;55.782;37.528;2023-06-22T09:49:59;6.72;;;3.92;;
35434;SDS011;21556;55.782;37.528;2023-06-22T09:52:25;6.05;;;4.47;;
35434;SDS011;21556;55.782;37.528;2023-06-22T09:54:52;7.68;;;4.50;;
35434;SDS011;21556;55.782;37.528;2023-06-22T09:57:18;5.93;;;4.18;;
35434;SDS011;21556;55.782;37.528;2023-06-22T09:59:47;6.18;;;3.78;;
35434;SDS011;21556;55.782;37.528;2023-06-22T10:02:15;6.65;;;3.95;;
35434;SDS011;21556;55.782;37.528;2023-06-22T10:04:42;6.30;;;4.10;;
35434;SDS011;21556;55.782;37.528;2023-06-22T10:07:08;5.97;;;4.93;;
35434;SDS011;21556;55.782;37.528;2023-06-22T10:09:34;4.88;;;3.92;;
35434;SDS011;21556;55.782;37.528;2023-06-22T10:12:00;5.90;;;4.35;;
35434;SDS011;21556;55.782;37.528;2023-06-22T10:14:26;7.10;;;4.45;;
35434;SDS011;21556;55.782;37.528;2023-06-22T10:16:55;6.70;;;4.00;;
35434;SDS011;21556;55.782;37.528;2023-06-22T10:19:22;4.82;;;4.05;;
35434;SDS011;21556;55.782;37.528;2023-06-22T10:21:48;5.18;;;4.30;;
35434;SDS011;21556;55.782;37.528;2023-06-22T10:24:14;4.60;;;4.15;;
35434;SDS011;21556;55.782;37.528;2023-06-22T10:26:40;5.63;;;3.95;;
35434;SDS011;21556;55.782;37.528;2023-06-22T10:29:06;6.00;;;4.13;;
35434;SDS011;21556;55.782;37.528;2023-06-22T10:31:35;6.32;;;4.00;;
35434;SDS011;21556;55.782;37.528;2023-06-22T10:34:01;6.00;;;4.07;;
35434;SDS011;21556;55.782;37.528;2023-06-22T10:36:27;5.75;;;4.10;;
35434;SDS011;21556;55.782;37.528;2023-06-22T10:38:57;5.63;;;4.53;;
35434;SDS011;21556;55.782;37.528;2023-06-22T10:41:28;5.82;;;4.10;;
35434;SDS011;21556;55.782;37.528;2023-06-22T10:43:55;6.68;;;4.28;;
35434;SDS011;21556;55.782;37.528;2023-06-22T10:46:23;7.75;;;4.38;;
35434;SDS011;21556;55.782;37.528;2023-06-22T10:48:51;6.18;;;4.70;;
35434;SDS011;21556;55.782;37.528;2023-06-22T10:51:20;6.78;;;4.00;;
35434;SDS011;21556;55.782;37.528;2023-06-22T10:53:47;5.75;;;4.70;;
35434;SDS011;21556;55.782;37.528;2023-06-22T10:56:13;6.20;;;4.65;;
35434;SDS011;21556;55.782;37.528;2023-06-22T10:58:39;7.28;;;4.60;;
35434;SDS011;21556;55.782;37.528;2023-06-22T11:01:05;7.82;;;3.97;;
35434;SDS011;21556;55.782;37.528;2023-06-22T11:03:31;7.35;;;4.50;;
35434;SDS011;21556;55.782;37.528;2023-06-22T11:05:57;6.75;;;4.43;;
35434;SDS011;21556;55.782;37.528;2023-06-22T11:08:23;7.07;;;4.22;;
35434;SDS011;21556;55.782;37.528;2023-06-22T11:10:50;6.50;;;4.60;;
35434;SDS011;21556;55.782;37.528;2023-06-22T11:15:43;7.47;;;4.35;;
35434;SDS011;21556;55.782;37.528;2023-06-22T11:18:09;8.65;;;4.72;;
35434;SDS011;21556;55.782;37.528;2023-06-22T11:20:34;6.22;;;4.57;;
35434;SDS011;21556;55.782;37.528;2023-06-22T11:23:04;6.07;;;4.30;;
35434;SDS011;21556;55.782;37.528;2023-06-22T11:25:32;4.90;;;4.40;;
35434;SDS011;21556;55.782;37.528;2023-06-22T11:28:03;5.35;;;4.78;;
35434;SDS011;21556;55.782;37.528;2023-06-22T11:30:30;4.65;;;4.20;;
35434;SDS011;21556;55.782;37.528;2023-06-22T11:32:56;8.23;;;4.85;;
35434;SDS011;21556;55.782;37.528;2023-06-22T11:35:24;4.93;;;4.22;;
35434;SDS011;21556;55.782;37.528;2023-06-22T11:37:50;5.82;;;4.15;;
35434;SDS011;21556;55.782;37.528;2023-06-22T11:40:16;5.85;;;4.70;;
35434;SDS011;21556;55.782;37.528;2023-06-22T11:42:43;6.72;;;4.30;;
35434;SDS011;21556;55.782;37.528;2023-06-22T11:45:09;7.13;;;4.50;;
35434;SDS011;21556;55.782;37.528;2023-06-22T11:47:35;5.03;;;4.00;;
35434;SDS011;21556;55.782;37.528;2023-06-22T11:50:02;7.07;;;5.75;;
35434;SDS011;21556;55.782;37.528;2023-06-22T11:52:29;5.75;;;4.43;;
35434;SDS011;21556;55.782;37.528;2023-06-22T11:54:55;4.63;;;4.18;;
35434;SDS011;21556;55.782;37.528;2023-06-22T11:57:21;5.70;;;4.18;;
35434;SDS011;21556;55.782;37.528;2023-06-22T11:59:46;7.47;;;4.85;;
35434;SDS011;21556;55.782;37.528;2023-06-22T12:02:12;5.28;;;4.78;;
35434;SDS011;21556;55.782;37.528;2023-06-22T12:04:38;4.82;;;4.32;;
35434;SDS011;21556;55.782;37.528;2023-06-22T12:07:04;4.40;;;4.00;;
35434;SDS011;21556;55.782;37.528;2023-06-22T12:09:30;6.15;;;4.45;;
35434;SDS011;21556;55.782;37.528;2023-06-22T12:11:56;5.28;;;4.72;;
35434;SDS011;21556;55.782;37.528;2023-06-22T12:14:22;5.53;;;4.50;;
35434;SDS011;21556;55.782;37.528;2023-06-22T12:16:48;7.13;;;4.70;;
35434;SDS011;21556;55.782;37.528;2023-06-22T12:19:14;7.25;;;4.65;;
35434;SDS011;21556;55.782;37.528;2023-06-22T12:21:39;6.70;;;4.72;;
35434;SDS011;21556;55.782;37.528;2023-06-22T12:24:06;10.18;;;4.90;;
35434;SDS011;21556;55.782;37.528;2023-06-22T12:26:32;8.00;;;4.60;;
35434;SDS011;21556;55.782;37.528;2023-06-22T12:28:58;6.40;;;4.70;;
35434;SDS011;21556;55.782;37.528;2023-06-22T12:31:24;7.97;;;4.55;;
35434;SDS011;21556;55.782;37.528;2023-06-22T12:33:49;8.40;;;6.72;;
35434;SDS011;21556;55.782;37.528;2023-06-22T12:36:15;9.45;;;5.50;;
35434;SDS011;21556;55.782;37.528;2023-06-22T12:38:41;9.07;;;5.78;;
35434;SDS011;21556;55.782;37.528;2023-06-22T12:41:07;8.48;;;4.43;;
35434;SDS011;21556;55.782;37.528;2023-06-22T12:43:33;7.70;;;4.40;;
35434;SDS011;21556;55.782;37.528;2023-06-22T12:45:59;6.65;;;4.57;;
35434;SDS011;21556;55.782;37.528;2023-06-22T12:48:26;6.63;;;4.80;;
35434;SDS011;21556;55.782;37.528;2023-06-22T12:50:52;6.10;;;5.10;;
35434;SDS011;21556;55.782;37.528;2023-06-22T12:53:18;4.85;;;4.32;;
35434;SDS011;21556;55.782;37.528;2023-06-22T12:55:44;4.97;;;4.45;;
35434;SDS011;21556;55.782;37.528;2023-06-22T12:58:10;6.65;;;4.57;;
35434;SDS011;21556;55.782;37.528;2023-06-22T13:00:37;9.38;;;4.93;;
35434;SDS011;21556;55.782;37.528;2023-06-22T13:03:04;8.23;;;4.50;;
35434;SDS011;21556;55.782;37.528;2023-06-22T13:05:30;4.55;;;4.13;;
35434;SDS011;21556;55.782;37.528;2023-06-22T13:07:56;6.30;;;4.70;;
35434;SDS011;21556;55.782;37.528;2023-06-22T13:10:22;8.07;;;4.75;;
35434;SDS011;21556;55.782;37.528;2023-06-22T13:12:48;7.07;;;4.55;;
35434;SDS011;21556;55.782;37.528;2023-06-22T13:15:14;7.40;;;4.93;;
35434;SDS011;21556;55.782;37.528;2023-06-22T13:17:39;5.28;;;4.45;;
35434;SDS011;21556;55.782;37.528;2023-06-22T13:20:06;6.25;;;4.78;;
35434;SDS011;21556;55.782;37.528;2023-06-22T13:22:35;4.63;;;4.10;;
35434;SDS011;21556;55.782;37.528;2023-06-22T13:25:06;7.55;;;4.57;;
35434;SDS011;21556;55.782;37.528;2023-06-22T13:27:32;6.03;;;4.20;;
35434;SDS011;21556;55.782;37.528;2023-06-22T13:29:58;4.82;;;4.40;;
35434;SDS011;21556;55.782;37.528;2023-06-22T13:32:24;5.63;;;4.55;;
35434;SDS011;21556;55.782;37.528;2023-06-22T13:34:51;6.88;;;4.90;;
35434;SDS011;21556;55.782;37.528;2023-06-22T13:37:20;6.47;;;4.75;;
35434;SDS011;21556;55.782;37.528;2023-06-22T13:39:46;9.13;;;4.53;;
35434;SDS011;21556;55.782;37.528;2023-06-22T13:42:12;5.30;;;4.13;;
35434;SDS011;21556;55.782;37.528;2023-06-22T13:44:38;7.25;;;4.55;;
35434;SDS011;21556;55.782;37.528;2023-06-22T13:47:04;5.05;;;4.55;;
35434;SDS011;21556;55.782;37.528;2023-06-22T13:49:31;5.43;;;4.85;;
35434;SDS011;21556;55.782;37.528;2023-06-22T13:51:57;6.97;;;4.95;;
35434;SDS011;21556;55.782;37.528;2023-06-22T13:54:24;8.17;;;4.33;;
35434;SDS011;21556;55.782;37.528;2023-06-22T13:56:50;5.53;;;4.13;;
35434;SDS011;21556;55.782;37.528;2023-06-22T13:59:16;9.27;;;5.00;;
35434;SDS011;21556;55.782;37.528;2023-06-22T14:01:42;7.57;;;4.93;;
35434;SDS011;21556;55.782;37.528;2023-06-22T14:04:09;10.70;;;5.35;;
35434;SDS011;21556;55.782;37.528;2023-06-22T14:06:35;6.15;;;5.10;;
35434;SDS011;21556;55.782;37.528;2023-06-22T14:09:01;5.78;;;4.80;;
35434;SDS011;21556;55.782;37.528;2023-06-22T14:11:28;5.53;;;4.82;;
35434;SDS011;21556;55.782;37.528;2023-06-22T14:13:57;4.93;;;4.40;;
35434;SDS011;21556;55.782;37.528;2023-06-22T14:16:24;5.75;;;4.75;;
35434;SDS011;21556;55.782;37.528;2023-06-22T14:18:49;5.88;;;5.10;;
35434;SDS011;21556;55.782;37.528;2023-06-22T14:21:15;7.00;;;4.75;;
35434;SDS011;21556;55.782;37.528;2023-06-22T14:23:41;4.95;;;4.28;;
35434;SDS011;21556;55.782;37.528;2023-06-22T14:26:09;8.55;;;4.80;;
35434;SDS011;21556;55.782;37.528;2023-06-22T14:28:35;6.82;;;5.13;;
35434;SDS011;21556;55.782;37.528;2023-06-22T14:31:01;6.05;;;5.32;;
35434;SDS011;21556;55.782;37.528;2023-06-22T14:33:26;6.05;;;4.47;;
35434;SDS011;21556;55.782;37.528;2023-06-22T14:35:52;10.25;;;4.97;;
35434;SDS011;21556;55.782;37.528;2023-06-22T14:38:18;6.30;;;4.78;;
35434;SDS011;21556;55.782;37.528;2023-06-22T14:40:50;7.95;;;5.07;;
35434;SDS011;21556;55.782;37.528;2023-06-22T14:43:17;6.25;;;4.95;;
35434;SDS011;21556;55.782;37.528;2023-06-22T14:45:43;6.47;;;5.03;;
35434;SDS011;21556;55.782;37.528;2023-06-22T14:48:09;6.78;;;4.45;;
35434;SDS011;21556;55.782;37.528;2023-06-22T14:50:37;7.10;;;4.80;;
35434;SDS011;21556;55.782;37.528;2023-06-22T14:53:03;5.82;;;4.60;;
35434;SDS011;21556;55.782;37.528;2023-06-22T14:55:29;5.65;;;4.45;;
35434;SDS011;21556;55.782;37.528;2023-06-22T14:57:55;5.82;;;4.32;;
35434;SDS011;21556;55.782;37.528;2023-06-22T15:00:24;6.18;;;4.90;;
35434;SDS011;21556;55.782;37.528;2023-06-22T15:02:53;5.60;;;4.70;;